Levering, MI (49755)

9:13 AM EDT on August 29, 2014 (GMT -0400)
Creekside, 4 Miles WSW Bliss | Change Station
CLOSE
Current Station
Personal Weather Station
Location: Bliss Township, MI
Elevation: 708 ft
Nearby Weather Stations

Elev 708 ft 45.65 °N, 84.92 °W | Updated 3 seconds ago

Light Rain
Light Rain
58.3 °F
Feels Like 58.3 °F
N
3.0
Wind Variable Wind from SE
Gusts 0.0 mph

Today
High -- | Low -- °F
--% Chance of Precip.
Yesterday
High -- | Low -- °F
Precip. -- in
6:56 AM 8:22 PM
Waxing Crescent, 14% visible
Pressure 30.09 in
Visibility 9.0 miles
Clouds Scattered Clouds 6000 ft
Overcast 10000 ft
Dew Point 56 °F
Humidity 92%
Rainfall 0.00 in
Snow Depth Not available.
UV 0 out of 12
Pollen 7.20 out of 12
Ozone Good
PM2.5 Good
Flu Activity Not available.
METAR KPLN 291254Z AUTO 15006KT 9SM -RA SCT060 OVC100 15/13 A3008 RMK AO2 RAB1158 SLP187 P0002 T01500133

More Conditions Fewer Conditions

Pressure 30.09 in
Visibility 9.0 miles
Clouds Scattered Clouds 6000 ft
Overcast 10000 ft
Dew Point 56 °F
Humidity 92%
Rainfall 0.00 in
Snow Depth Not available.
UV 0 out of 12
Pollen 7.20 out of 12
Ozone Good
PM2.5 Good
Flu Activity Not available.
METAR KPLN 291254Z AUTO 15006KT 9SM -RA SCT060 OVC100 15/13 A3008 RMK AO2 RAB1158 SLP187 P0002 T01500133

More Conditions Fewer Conditions

Nowcast | as of 9:00 am EDT on August 29, 2014

At 10 am...rain showers. Temperature 64. Southeast winds 6 mph. At 12 PM...numerous rain showers. Temperature 68. Southeast winds 8 mph. At 2 PM...numerous rain showers. Temperature 71. Southeast winds 10 mph. At 4 PM...numerous rain showers. Temperature 72. South winds 10 mph.

×

10-Day Weather Forecast

Almanac

Astronomy

Aug. 29, 2014 Rise Set
Actual Time 6:56 AM EDT 8:22 PM EDT
Civil Twilight 6:25 AM EDT 8:53 PM EDT
Nautical Twilight 5:48 AM EDT 9:30 PM EDT
Astronomical Twilight 5:08 AM EDT 10:10 PM EDT
Moon 10:59 AM EDT 10:05 PM EDT
Length of Visible Light 14h 27m
Length of Day
13h 25m
Tomorrow will be 3m 4s shorter.
Waxing Crescent, 14% of the Moon is Illuminated
Today
Waxing Crescent
Sep 2
First Quarter
Sep 8
Full
Sep 15
Last Quarter
Sep 24
New

Today's Extremes

State Highs State Lows

Community

WunderPhotos

Upload Photos

1,748,226 photos uploaded!

Nearby

Air Quality

  Air Quality AQ Index Pollutant
Yesterday Good
OZONE
Yesterday Good
PM2.5
Current Good
PM2.5
Current Good
OZONE
Friday Good
OZONE
Friday Good
PM2.5

Snow Depth

Station Depth Elevation
No new snow has been reported.

Earthquake Activity

City Distance Mag. Time & Date
No recent earthquake activity has been reported nearby.
Minimum magnitude displayed is 2.5.

Coastal Water Temperatures

Place Temperature
Mackinaw City, MI 66.0 °F
Port Inland, MI 64.0 °F

Nearby Weather Stations